Time;durP1;ratioP1;P1;durP2;ratioP2;P2;SDS_P1;SDS_P2;PMS_P1;PMS_P2;Temp;Humidity;BMP_temperature;BMP_pressure;BME280_temperature;BME280_humidity;BME280_pressure;Samples;Min_cycle;Max_cycle;Signal;HPM_P1;HPM_P2
2022/03/27 00:01:14;;;;;;;3.50;3.20;;;22.50;50.90;;;;;;5007738;28;20507;-90
2022/03/27 00:03:41;;;;;;;3.10;2.80;;;22.50;50.90;;;;;;5008223;28;20416;-90
2022/03/27 00:06:07;;;;;;;4.00;3.10;;;22.50;50.80;;;;;;5007363;28;20412;-90
2022/03/27 00:08:33;;;;;;;3.17;2.87;;;22.50;50.90;;;;;;5007367;28;20421;-90
2022/03/27 00:13:43;;;;;;;3.23;2.63;;;22.50;50.90;;;;;;5008789;28;20208;-90
2022/03/27 00:16:09;;;;;;;3.37;2.70;;;22.50;50.80;;;;;;5007827;28;20424;-90
2022/03/27 00:18:36;;;;;;;5.00;3.23;;;22.50;50.80;;;;;;5007127;28;20195;-90
2022/03/27 00:21:04;;;;;;;3.50;3.20;;;22.50;50.80;;;;;;5006304;28;20476;-90
2022/03/27 00:23:31;;;;;;;3.40;3.10;;;22.50;50.80;;;;;;5008349;28;20427;-90
2022/03/27 00:25:57;;;;;;;3.40;3.10;;;22.50;50.80;;;;;;5007042;28;20416;-90
2022/03/27 00:28:23;;;;;;;4.83;3.50;;;22.50;50.80;;;;;;5007181;28;20419;-90
2022/03/27 00:30:49;;;;;;;3.10;2.80;;;22.50;50.80;;;;;;5007441;28;20179;-89
2022/03/27 00:33:15;;;;;;;5.30;2.53;;;22.50;50.80;;;;;;5007387;28;20424;-90
2022/03/27 00:35:41;;;;;;;4.30;3.27;;;22.50;50.80;;;;;;5007041;28;20232;-90
2022/03/27 00:38:07;;;;;;;3.23;2.93;;;22.50;50.80;;;;;;5006730;28;20435;-90
2022/03/27 00:40:34;;;;;;;5.30;3.47;;;22.50;50.70;;;;;;5007153;28;20173;-90
2022/03/27 00:42:59;;;;;;;3.30;3.00;;;22.50;50.70;;;;;;5008385;28;20435;-90
2022/03/27 00:45:26;;;;;;;3.80;3.20;;;22.50;50.70;;;;;;4990204;28;20424;-90
2022/03/27 00:47:52;;;;;;;4.70;3.23;;;22.50;50.70;;;;;;5007303;28;20208;-90
2022/03/27 00:50:18;;;;;;;3.73;3.00;;;22.50;50.70;;;;;;5007211;28;20435;-90
2022/03/27 00:52:44;;;;;;;3.23;2.93;;;22.50;50.70;;;;;;5006696;28;20440;-90
2022/03/27 00:55:09;;;;;;;3.50;2.83;;;22.50;50.70;;;;;;5006664;28;20237;-89
2022/03/27 00:57:35;;;;;;;3.80;2.70;;;22.50;50.70;;;;;;5007349;28;20185;-89
2022/03/27 01:00:01;;;;;;;3.80;2.97;;;22.50;50.70;;;;;;5007460;28;20184;-90
2022/03/27 01:02:27;;;;;;;2.73;2.50;;;22.50;50.70;;;;;;5008910;28;20176;-89
2022/03/27 01:04:58;;;;;;;4.53;3.77;;;22.50;50.70;;;;;;5006764;28;20176;-90
2022/03/27 01:10:46;;;;;;;3.40;2.70;;;22.50;50.70;;;;;;5008340;28;20423;-89
2022/03/27 01:13:18;;;;;;;3.00;2.70;;;22.50;50.70;;;;;;5007827;28;20416;-90
2022/03/27 01:15:54;;;;;;;2.73;2.53;;;22.50;50.70;;;;;;5008045;28;20197;-90
2022/03/27 01:18:20;;;;;;;3.40;3.10;;;22.50;50.70;;;;;;5007290;28;20790;-89
2022/03/27 01:20:46;;;;;;;3.40;3.00;;;22.50;50.70;;;;;;5008088;28;20923;-89
2022/03/27 01:23:13;;;;;;;2.73;2.50;;;22.50;51.30;;;;;;5006930;28;20420;-90
2022/03/27 01:25:43;;;;;;;3.30;2.97;;;22.50;50.80;;;;;;5006873;28;20173;-89
2022/03/27 01:28:10;;;;;;;4.60;3.13;;;22.50;50.70;;;;;;5006939;28;20856;-90
2022/03/27 01:30:37;;;;;;;3.07;2.77;;;22.50;50.70;;;;;;5006617;28;20420;-90
2022/03/27 01:33:05;;;;;;;3.53;2.83;;;22.50;50.70;;;;;;5006190;28;20423;-89
2022/03/27 01:35:31;;;;;;;3.43;2.83;;;22.50;50.70;;;;;;5007704;28;20532;-89
2022/03/27 01:37:57;;;;;;;3.70;3.20;;;22.50;50.70;;;;;;5006172;28;20424;-90
2022/03/27 01:40:23;;;;;;;3.00;2.40;;;22.50;50.70;;;;;;5005952;28;20420;-89
2022/03/27 01:42:52;;;;;;;3.07;2.77;;;22.50;50.70;;;;;;5007623;28;20439;-90
2022/03/27 01:45:19;;;;;;;4.20;2.90;;;22.50;50.70;;;;;;5007572;28;20170;-89
2022/03/27 01:47:44;;;;;;;3.50;3.20;;;22.50;50.70;;;;;;5006209;28;20471;-89
2022/03/27 01:50:10;;;;;;;3.20;2.90;;;22.50;50.70;;;;;;5006363;28;20420;-89
2022/03/27 01:52:36;;;;;;;3.83;3.40;;;22.50;50.70;;;;;;5005896;28;20192;-89
2022/03/27 01:55:05;;;;;;;3.30;3.00;;;22.50;50.70;;;;;;5006440;28;20266;-90
2022/03/27 01:57:31;;;;;;;4.37;3.00;;;22.60;50.70;;;;;;5005540;28;20179;-89
2022/03/27 01:59:57;;;;;;;5.43;2.87;;;22.60;50.70;;;;;;5006471;28;20503;-90
2022/03/27 02:02:25;;;;;;;3.23;2.93;;;22.50;50.70;;;;;;5006427;28;20181;-89
2022/03/27 02:04:52;;;;;;;2.80;2.47;;;22.60;50.80;;;;;;5006971;28;20179;-89
2022/03/27 02:07:19;;;;;;;3.57;3.10;;;22.50;50.70;;;;;;5006313;28;20416;-89
2022/03/27 02:09:45;;;;;;;3.17;2.43;;;22.50;50.70;;;;;;5006623;28;20420;-89
2022/03/27 02:12:12;;;;;;;3.30;2.50;;;22.50;50.70;;;;;;5005858;28;20428;-89
2022/03/27 02:14:39;;;;;;;3.70;3.10;;;22.60;50.80;;;;;;5005783;28;20459;-89
2022/03/27 02:17:05;;;;;;;4.67;3.13;;;22.50;50.70;;;;;;5006929;28;20408;-88
2022/03/27 02:19:31;;;;;;;2.90;2.70;;;22.50;50.70;;;;;;5005174;28;20471;-88
2022/03/27 02:25:19;;;;;;;3.17;2.73;;;22.60;50.70;;;;;;5007566;28;20192;-89
2022/03/27 02:27:44;;;;;;;3.17;2.87;;;22.50;50.70;;;;;;5006187;28;20416;-88
2022/03/27 02:30:11;;;;;;;3.33;2.37;;;22.50;50.70;;;;;;5006337;28;20177;-88
2022/03/27 02:32:36;;;;;;;4.13;3.77;;;22.50;50.70;;;;;;5010058;28;20177;-87
2022/03/27 02:35:02;;;;;;;3.53;2.83;;;22.50;50.70;;;;;;5009907;28;20490;-90
2022/03/27 02:37:28;;;;;;;2.80;2.43;;;22.50;50.70;;;;;;5010122;28;20180;-90
2022/03/27 02:39:54;;;;;;;4.27;3.27;;;22.50;50.70;;;;;;5010581;28;20200;-89
2022/03/27 02:42:20;;;;;;;3.47;2.60;;;22.50;50.70;;;;;;5011611;28;20259;-90
2022/03/27 02:44:46;;;;;;;2.80;2.23;;;22.50;50.70;;;;;;5009693;28;20212;-89
2022/03/27 02:47:12;;;;;;;2.73;2.43;;;22.50;50.70;;;;;;5011621;28;20470;-89
2022/03/27 02:49:37;;;;;;;2.80;2.50;;;22.50;50.70;;;;;;5011369;28;20177;-89
2022/03/27 02:52:04;;;;;;;3.33;2.70;;;22.50;50.80;;;;;;5009544;28;20201;-90
2022/03/27 02:54:32;;;;;;;2.67;2.27;;;22.50;50.80;;;;;;5009981;28;20192;-89
2022/03/27 02:56:57;;;;;;;3.30;2.57;;;22.50;50.70;;;;;;5011121;28;20770;-89
2022/03/27 02:59:25;;;;;;;2.93;2.63;;;22.50;50.80;;;;;;5011604;28;20395;-90
2022/03/27 03:01:51;;;;;;;4.70;3.37;;;22.50;50.70;;;;;;5010536;28;20161;-89
2022/03/27 03:04:16;;;;;;;3.40;3.07;;;22.50;50.80;;;;;;5009094;28;20478;-89
2022/03/27 03:06:42;;;;;;;2.73;2.43;;;22.50;50.80;;;;;;5010691;28;20184;-90
2022/03/27 03:09:08;;;;;;;3.43;2.60;;;22.50;50.80;;;;;;5010073;28;20180;-89
2022/03/27 03:11:34;;;;;;;2.87;2.50;;;22.50;50.80;;;;;;5010354;28;20173;-89
2022/03/27 03:14:00;;;;;;;3.00;2.40;;;22.50;50.80;;;;;;5008887;28;20208;-90
2022/03/27 03:16:26;;;;;;;3.57;3.20;;;22.50;50.80;;;;;;5010496;28;20416;-90
2022/03/27 03:18:52;;;;;;;2.57;2.37;;;22.50;50.80;;;;;;5010072;28;20173;-89
2022/03/27 03:24:40;;;;;;;2.67;2.40;;;22.50;50.70;;;;;;5009478;28;20527;-89
2022/03/27 03:27:06;;;;;;;3.00;2.33;;;22.50;50.80;;;;;;5008764;28;20412;-90
2022/03/27 03:29:33;;;;;;;2.90;2.60;;;22.50;50.80;;;;;;5010337;28;20659;-90
2022/03/27 03:31:58;;;;;;;2.90;2.57;;;22.50;50.80;;;;;;5008967;28;20208;-89
2022/03/27 03:34:24;;;;;;;2.50;2.30;;;22.50;50.80;;;;;;5008971;28;20456;-88
2022/03/27 03:36:51;;;;;;;3.07;2.53;;;22.50;50.80;;;;;;5008433;28;20181;-89
2022/03/27 03:39:16;;;;;;;3.20;2.47;;;22.50;50.80;;;;;;5008770;28;20507;-89
2022/03/27 03:41:42;;;;;;;2.97;2.67;;;22.50;50.80;;;;;;5010446;28;20416;-89
2022/03/27 03:44:22;;;;;;;3.40;3.13;;;22.50;50.90;;;;;;5008487;28;20185;-88
2022/03/27 03:46:48;;;;;;;2.57;2.37;;;22.50;50.80;;;;;;5009574;28;20204;-89
2022/03/27 03:49:14;;;;;;;3.00;2.70;;;22.50;50.80;;;;;;5009354;28;20435;-89
2022/03/27 03:51:40;;;;;;;2.20;1.97;;;22.50;50.80;;;;;;5009800;28;20510;-89
2022/03/27 03:54:09;;;;;;;2.37;2.10;;;22.50;50.80;;;;;;5009130;28;20475;-89
2022/03/27 03:56:38;;;;;;;3.60;2.70;;;22.50;50.80;;;;;;5009789;28;20442;-88
2022/03/27 03:59:04;;;;;;;2.80;2.50;;;22.50;50.80;;;;;;5008940;28;20421;-88
2022/03/27 04:01:29;;;;;;;2.90;2.60;;;22.50;50.80;;;;;;5009915;28;20416;-88
2022/03/27 04:03:55;;;;;;;4.47;3.10;;;22.50;50.80;;;;;;5008992;28;20443;-88
2022/03/27 04:06:22;;;;;;;2.63;2.43;;;22.50;50.80;;;;;;5008451;28;20177;-88
2022/03/27 04:08:48;;;;;;;2.87;2.57;;;22.50;50.80;;;;;;5009593;28;20169;-89
2022/03/27 04:11:16;;;;;;;2.40;2.20;;;22.40;50.70;;;;;;5007781;28;20426;-90
2022/03/27 04:13:45;;;;;;;2.40;2.20;;;22.40;50.70;;;;;;5008368;28;20177;-89
2022/03/27 04:16:12;;;;;;;2.77;2.30;;;22.40;50.70;;;;;;5007735;28;20463;-89
2022/03/27 04:18:39;;;;;;;2.47;2.27;;;22.40;50.70;;;;;;5008116;28;20423;-89
2022/03/27 04:21:05;;;;;;;2.40;2.20;;;22.40;50.70;;;;;;5009227;28;20419;-89
2022/03/27 04:23:31;;;;;;;3.77;2.60;;;22.40;50.70;;;;;;5008941;28;20412;-90
2022/03/27 11:07:32;;;;;;;3.43;3.10;;;23.00;51.30;;;;;;5020057;28;20461;-88
2022/03/27 11:09:58;;;;;;;2.90;2.70;;;23.00;51.30;;;;;;5027947;28;20513;-87
2022/03/27 11:12:25;;;;;;;3.10;2.80;;;23.00;51.90;;;;;;5026981;28;20431;-89
2022/03/27 11:15:00;;;;;;;3.03;2.77;;;23.00;51.30;;;;;;5025095;28;20459;-89
2022/03/27 11:17:38;;;;;;;2.70;2.43;;;23.00;51.20;;;;;;5028047;28;20453;-89
2022/03/27 11:20:31;;;;;;;4.70;3.00;;;23.00;51.20;;;;;;5032242;28;20416;-91
2022/03/27 11:23:18;;;;;;;3.40;2.93;;;23.00;51.20;;;;;;5022867;28;20415;-91
2022/03/27 11:25:48;;;;;;;3.40;2.63;;;23.00;51.20;;;;;;5030348;28;20438;-91
2022/03/27 11:28:21;;;;;;;3.23;2.77;;;23.00;51.10;;;;;;5017895;28;20910;-90
2022/03/27 11:30:58;;;;;;;3.80;2.77;;;23.10;51.20;;;;;;5010689;28;20423;-90
2022/03/27 11:33:36;;;;;;;3.43;2.73;;;23.10;51.20;;;;;;5010008;28;20442;-90
2022/03/27 11:36:07;;;;;;;3.57;3.13;;;23.10;51.20;;;;;;5005352;28;20459;-91
2022/03/27 11:38:37;;;;;;;4.73;3.27;;;23.10;51.20;;;;;;5010599;28;20444;-90
2022/03/27 11:41:38;;;;;;;4.13;3.73;;;23.10;51.20;;;;;;5010640;28;20444;-90
2022/03/27 11:51:32;;;;;;;2.83;2.63;;;23.10;51.20;;;;;;5004294;28;20424;-91
2022/03/27 11:53:59;;;;;;;4.40;3.13;;;23.10;51.30;;;;;;4994310;28;20437;-90
2022/03/27 11:56:25;;;;;;;3.67;3.30;;;23.10;51.30;;;;;;5008758;28;20443;-90
2022/03/27 11:59:09;;;;;;;3.20;2.90;;;23.10;51.30;;;;;;5007524;28;20424;-91
2022/03/27 12:01:36;;;;;;;3.37;3.03;;;23.10;51.30;;;;;;5005908;28;20424;-90
2022/03/27 12:04:05;;;;;;;4.63;3.00;;;23.10;51.30;;;;;;5006865;28;20420;-90
2022/03/27 12:06:31;;;;;;;3.73;3.37;;;23.10;51.30;;;;;;5008325;28;20446;-90
2022/03/27 12:08:58;;;;;;;3.30;3.00;;;23.10;51.30;;;;;;5023402;28;20444;-91
2022/03/27 12:11:30;;;;;;;3.23;2.93;;;23.20;51.30;;;;;;5011248;28;20459;-90
2022/03/27 12:14:07;;;;;;;3.80;3.17;;;23.10;51.20;;;;;;5001676;28;20482;-91
2022/03/27 12:16:35;;;;;;;3.00;2.70;;;23.20;51.30;;;;;;5009435;28;20467;-90
2022/03/27 12:19:13;;;;;;;2.97;2.70;;;23.20;51.30;;;;;;5012115;28;20440;-90
2022/03/27 12:21:46;;;;;;;3.27;2.97;;;23.20;51.30;;;;;;5011290;28;20424;-91
2022/03/27 12:24:12;;;;;;;3.47;3.00;;;23.20;51.30;;;;;;5011598;28;20483;-91
2022/03/27 12:29:49;;;;;;;3.37;3.07;;;23.20;51.30;;;;;;5013485;28;20192;-91
2022/03/27 12:32:29;;;;;;;3.80;2.93;;;23.20;51.30;;;;;;5020702;28;20507;-91
2022/03/27 12:35:01;;;;;;;4.30;3.20;;;23.20;51.30;;;;;;5002386;28;20459;-91
2022/03/27 12:37:29;;;;;;;3.50;2.90;;;23.20;51.30;;;;;;5026578;28;20437;-91
2022/03/27 12:39:55;;;;;;;4.23;3.10;;;23.20;51.30;;;;;;5000435;28;20420;-91
2022/03/27 12:42:46;;;;;;;3.43;3.13;;;23.20;51.30;;;;;;5008296;28;20415;-91
2022/03/27 12:45:36;;;;;;;3.87;3.20;;;23.20;51.30;;;;;;5002562;28;20416;-90
2022/03/27 13:22:10;;;;;;;;;;;;;;;;;;;;;
2022/03/27 13:24:49;;;;;;;3.63;2.90;;;23.10;51.20;;;;;;4844577;29;20459;-91
2022/03/27 13:33:32;;;;;;;3.40;2.70;;;23.20;51.20;;;;;;4900537;29;20413;-92
2022/03/27 13:36:16;;;;;;;5.63;3.00;;;23.10;51.20;;;;;;4972351;29;20489;-91
2022/03/27 13:39:00;;;;;;;3.40;3.10;;;23.10;51.20;;;;;;4957754;29;20433;-90
2022/03/27 13:45:27;;;;;;;3.70;2.93;;;23.10;51.20;;;;;;4904311;29;20448;-90
2022/03/27 13:48:01;;;;;;;3.87;3.50;;;23.10;51.20;;;;;;4958623;29;20405;-90
2022/03/27 13:50:33;;;;;;;3.47;3.00;;;23.10;51.20;;;;;;4958507;29;20409;-90
2022/03/27 13:53:13;;;;;;;2.80;2.60;;;23.10;51.20;;;;;;4974526;29;20433;-90
2022/03/27 13:55:51;;;;;;;3.87;3.20;;;23.10;51.20;;;;;;5027595;28;20470;-91
2022/03/27 13:58:29;;;;;;;3.30;3.00;;;23.10;51.20;;;;;;5018469;28;20422;-90
2022/03/27 14:01:03;;;;;;;3.57;3.23;;;23.10;51.20;;;;;;5033404;28;20435;-90
2022/03/27 14:10:03;;;;;;;2.80;2.60;;;23.10;51.20;;;;;;4973010;29;20402;-92
2022/03/27 14:12:37;;;;;;;3.80;2.77;;;23.10;51.30;;;;;;4954211;29;20426;-92
2022/03/27 14:15:06;;;;;;;3.27;2.97;;;23.10;51.30;;;;;;4949885;29;20480;-92
2022/03/27 14:17:35;;;;;;;3.13;2.73;;;23.10;51.30;;;;;;4952712;29;20406;-91
2022/03/27 14:20:03;;;;;;;3.57;3.10;;;23.10;51.30;;;;;;4953628;29;20520;-92
2022/03/27 14:22:48;;;;;;;2.90;2.70;;;23.10;51.30;;;;;;4966255;29;20432;-92
2022/03/27 14:25:26;;;;;;;2.83;2.60;;;23.10;51.30;;;;;;4950143;28;20414;-92
2022/03/27 14:27:56;;;;;;;3.73;2.57;;;23.10;51.30;;;;;;4954213;29;20420;-92
2022/03/27 14:30:31;;;;;;;3.43;2.30;;;23.10;51.30;;;;;;4953553;29;20908;-92
2022/03/27 14:33:07;;;;;;;2.93;2.57;;;23.10;51.30;;;;;;4953765;29;20414;-92
2022/03/27 14:35:44;;;;;;;3.17;2.87;;;23.10;51.30;;;;;;4969793;29;20449;-92
2022/03/27 14:38:13;;;;;;;2.80;2.50;;;23.10;51.30;;;;;;4953408;29;20441;-92
2022/03/27 14:40:39;;;;;;;3.47;2.63;;;23.10;51.30;;;;;;4969066;29;20478;-92
2022/03/27 14:43:05;;;;;;;2.50;2.30;;;23.10;51.30;;;;;;4953388;29;20542;-92
2022/03/27 14:45:48;;;;;;;3.00;2.63;;;23.00;51.20;;;;;;4952517;29;20422;-92
2022/03/27 14:57:53;;;;;;;3.17;2.87;;;23.00;51.30;;;;;;4931360;29;20935;-91
2022/03/27 15:00:32;;;;;;;3.37;2.90;;;23.00;51.30;;;;;;4915889;29;20538;-91
2022/03/27 15:04:04;;;;;;;;;;;;;;;;;;;;;
2022/03/27 15:10:00;;;;;;;3.07;2.87;;;23.00;51.30;;;;;;4820439;29;20412;-93
2022/03/27 15:12:34;;;;;;;3.70;2.47;;;23.00;51.30;;;;;;4819811;29;20424;-91
2022/03/27 15:15:03;;;;;;;2.83;2.60;;;23.00;51.30;;;;;;4819144;29;20496;-90
2022/03/27 15:17:34;;;;;;;4.23;3.13;;;23.00;51.30;;;;;;4819645;29;20454;-91
2022/03/27 15:20:07;;;;;;;2.83;2.50;;;23.00;51.30;;;;;;4819882;29;20848;-92
2022/03/27 15:22:41;;;;;;;2.87;2.23;;;23.00;51.30;;;;;;4819235;29;20474;-90
2022/03/27 15:25:10;;;;;;;2.87;2.40;;;23.00;51.20;;;;;;4819117;29;21000;-91
2022/03/27 15:27:37;;;;;;;2.50;2.30;;;23.00;51.20;;;;;;4819149;29;20528;-91
2022/03/27 15:30:15;;;;;;;2.40;2.20;;;23.00;51.20;;;;;;4820158;29;20449;-92
2022/03/27 15:32:48;;;;;;;3.07;2.63;;;23.00;51.20;;;;;;4820727;29;20440;-91
2022/03/27 15:35:19;;;;;;;2.97;2.67;;;23.00;51.20;;;;;;4820890;29;20473;-91
2022/03/27 15:37:52;;;;;;;3.00;2.70;;;23.00;51.20;;;;;;4843027;29;20478;-91
2022/03/27 15:40:24;;;;;;;2.23;2.00;;;23.00;51.20;;;;;;4877627;29;20446;-91
2022/03/27 15:42:52;;;;;;;2.87;2.63;;;23.00;51.20;;;;;;4904490;29;20442;-92
2022/03/27 15:45:21;;;;;;;2.47;2.27;;;23.00;51.20;;;;;;4952304;29;20417;-92
2022/03/27 15:47:49;;;;;;;2.70;2.47;;;23.00;51.30;;;;;;4952087;29;20418;-90
2022/03/27 15:50:19;;;;;;;3.47;2.60;;;23.00;51.30;;;;;;4952181;29;20434;-92
2022/03/27 15:52:57;;;;;;;2.40;2.20;;;23.00;51.20;;;;;;4967730;29;20461;-92
2022/03/27 16:02:16;;;;;;;2.87;2.30;;;23.00;51.30;;;;;;4930285;28;20407;-91
2022/03/27 16:05:18;;;;;;;2.37;2.17;;;22.90;51.30;;;;;;4930046;29;20415;-91
2022/03/27 16:07:47;;;;;;;2.80;2.40;;;22.90;51.30;;;;;;4929737;29;20967;-91
2022/03/27 16:10:29;;;;;;;3.00;2.80;;;22.90;51.30;;;;;;4929246;29;20431;-91
2022/03/27 16:13:19;;;;;;;2.90;2.50;;;22.90;51.30;;;;;;4929866;29;20451;-90
2022/03/27 16:15:49;;;;;;;2.77;2.50;;;22.90;51.30;;;;;;4928995;29;20459;-92
2022/03/27 16:19:16;;;;;;;2.77;2.53;;;22.90;51.30;;;;;;4913583;29;20423;-90
2022/03/27 16:22:21;;;;;;;2.53;2.13;;;22.90;51.30;;;;;;4817307;29;20422;-91
2022/03/27 16:28:46;;;;;;;2.07;1.87;;;22.90;51.30;;;;;;4818026;29;20404;-90
2022/03/27 16:31:42;;;;;;;2.40;2.20;;;22.90;51.40;;;;;;4802646;29;20428;-93
2022/03/27 16:34:37;;;;;;;2.33;2.13;;;22.80;51.30;;;;;;4818664;29;20505;-92
2022/03/27 16:43:52;;;;;;;3.53;2.30;;;22.90;51.40;;;;;;4854452;29;20422;-92
2022/03/27 16:46:30;;;;;;;1.90;1.73;;;22.90;51.40;;;;;;4845946;29;20484;-92
2022/03/27 16:49:27;;;;;;;2.53;2.20;;;22.90;51.40;;;;;;4838494;29;20415;-91
2022/03/27 16:52:04;;;;;;;2.40;2.20;;;22.90;51.40;;;;;;4853486;29;20446;-91
2022/03/27 16:54:46;;;;;;;;;;;;;;;;;;;;;
2022/03/27 17:04:23;;;;;;;2.50;2.00;;;22.80;51.20;;;;;;4892846;29;20482;-91
2022/03/27 17:06:49;;;;;;;4.10;3.37;;;22.80;51.30;;;;;;4892350;29;20410;-90
2022/03/27 17:09:14;;;;;;;2.70;2.50;;;22.80;51.30;;;;;;4892661;29;20954;-88
2022/03/27 17:11:40;;;;;;;3.00;2.20;;;22.80;51.30;;;;;;4892475;29;20189;-88
2022/03/27 17:14:07;;;;;;;2.40;2.07;;;22.80;51.30;;;;;;4892369;29;20189;-90
2022/03/27 17:16:33;;;;;;;2.70;2.33;;;22.80;51.30;;;;;;4913781;29;20457;-90
2022/03/27 17:18:59;;;;;;;2.40;2.10;;;22.90;51.40;;;;;;4951385;29;20960;-91
2022/03/27 17:21:25;;;;;;;2.20;2.00;;;22.90;51.40;;;;;;4951686;29;20518;-90
2022/03/27 17:23:51;;;;;;;2.50;2.17;;;22.90;51.40;;;;;;4967628;29;20422;-89
2022/03/27 17:26:17;;;;;;;4.27;2.80;;;22.90;51.40;;;;;;4951575;29;20183;-90
2022/03/27 17:28:43;;;;;;;2.67;2.40;;;22.90;52.00;;;;;;4967488;29;20183;-90
2022/03/27 17:31:09;;;;;;;1.83;1.73;;;22.90;51.40;;;;;;4952600;29;20943;-89
2022/03/27 17:33:35;;;;;;;2.73;2.30;;;22.90;52.00;;;;;;4968298;28;20414;-88
2022/03/27 17:36:02;;;;;;;3.33;2.07;;;23.00;51.50;;;;;;5028476;28;20209;-89
2022/03/27 17:38:29;;;;;;;2.30;2.10;;;23.00;51.50;;;;;;5028352;28;20199;-89
2022/03/27 17:40:57;;;;;;;3.30;2.30;;;23.00;51.50;;;;;;5026956;28;20910;-89
2022/03/27 17:43:23;;;;;;;2.30;2.00;;;23.00;51.50;;;;;;5026063;28;20203;-90
2022/03/27 17:45:49;;;;;;;4.37;2.07;;;23.00;51.50;;;;;;5027668;28;20427;-90
2022/03/27 17:48:18;;;;;;;2.13;1.93;;;23.00;51.50;;;;;;5027000;28;20183;-89
2022/03/27 17:50:54;;;;;;;2.83;2.23;;;23.00;51.50;;;;;;5027443;28;20165;-90
2022/03/27 17:53:20;;;;;;;3.10;2.57;;;23.00;51.50;;;;;;5026374;28;20427;-89
2022/03/27 17:59:09;;;;;;;2.80;2.13;;;23.10;51.60;;;;;;5027250;28;20418;-89
2022/03/27 18:01:34;;;;;;;2.83;2.60;;;23.00;51.60;;;;;;5026751;28;20403;-87
2022/03/27 18:04:00;;;;;;;2.90;2.17;;;23.00;51.60;;;;;;5027684;28;20673;-88
2022/03/27 18:06:27;;;;;;;4.70;2.30;;;23.10;51.60;;;;;;5027992;28;20207;-90
2022/03/27 18:08:55;;;;;;;2.20;2.00;;;23.10;51.60;;;;;;5027647;28;20234;-89
2022/03/27 18:11:21;;;;;;;3.00;2.30;;;23.10;51.60;;;;;;5028143;28;20423;-89
2022/03/27 18:13:47;;;;;;;4.87;2.23;;;23.10;51.60;;;;;;5028892;28;20407;-90
2022/03/27 18:16:14;;;;;;;3.30;3.03;;;23.10;51.50;;;;;;5027865;28;20211;-88
2022/03/27 18:18:41;;;;;;;4.33;1.90;;;23.20;51.60;;;;;;5027670;28;20487;-89
2022/03/27 18:21:14;;;;;;;3.30;2.07;;;23.20;51.60;;;;;;5028576;28;20442;-88
2022/03/27 18:23:51;;;;;;;2.30;2.13;;;23.20;51.60;;;;;;5031065;28;20471;-88
2022/03/27 18:29:33;;;;;;;1.93;1.60;;;23.20;51.60;;;;;;5019909;28;20415;-90
2022/03/27 18:32:07;;;;;;;2.20;1.90;;;23.20;51.60;;;;;;5028868;28;20454;-90
2022/03/27 18:34:34;;;;;;;4.00;2.63;;;23.20;51.60;;;;;;5028801;28;20452;-89
2022/03/27 18:37:00;;;;;;;4.03;2.07;;;23.20;51.50;;;;;;5028072;28;20407;-89
2022/03/27 18:39:26;;;;;;;3.70;2.20;;;23.20;51.50;;;;;;5027251;28;20450;-90
2022/03/27 18:41:57;;;;;;;2.37;2.17;;;23.20;51.50;;;;;;5025996;28;20260;-89
2022/03/27 19:01:54;;;;;;;;;;;;;;;;;;;;;
2022/03/27 19:08:19;;;;;;;;;;;;;;;;;;;;;
2022/03/27 19:52:28;;;;;;;;;;;;;;;;;;;;;
2022/03/27 19:55:14;;;;;;;2.60;2.00;;;23.10;51.60;;;;;;4856232;29;20534;-90
2022/03/27 19:58:14;;;;;;;2.40;2.20;;;23.10;51.50;;;;;;4857515;29;20462;-90
2022/03/27 20:38:38;;;;;;;3.00;2.07;;;23.10;51.60;;;;;;4752114;30;20443;-89
2022/03/27 20:44:31;;;;;;;;;;;;;;;;;;;;;
2022/03/27 20:50:28;;;;;;;2.63;1.80;;;23.10;51.60;;;;;;4765138;30;20970;-90
2022/03/27 20:53:07;;;;;;;2.30;1.70;;;23.10;51.60;;;;;;4766666;30;20416;-90
2022/03/27 20:55:35;;;;;;;1.50;1.30;;;23.10;51.60;;;;;;4767160;30;20486;-90
2022/03/27 20:58:08;;;;;;;2.17;1.87;;;23.10;51.50;;;;;;4766755;30;20408;-92
2022/03/27 21:00:44;;;;;;;1.40;1.20;;;23.10;51.50;;;;;;4769077;30;20517;-92
2022/03/27 21:03:10;;;;;;;2.40;2.20;;;23.10;51.50;;;;;;4785127;30;20828;-91
2022/03/27 21:05:41;;;;;;;1.93;1.73;;;23.10;51.50;;;;;;4811630;29;20421;-91
2022/03/27 21:08:11;;;;;;;1.67;1.50;;;23.10;51.50;;;;;;4858901;29;20495;-91
2022/03/27 21:10:39;;;;;;;2.20;2.00;;;23.10;51.50;;;;;;4924524;28;20433;-92
2022/03/27 21:13:08;;;;;;;3.30;1.90;;;23.10;51.50;;;;;;5003552;28;20454;-92
2022/03/27 21:15:40;;;;;;;2.37;1.80;;;23.10;51.40;;;;;;5009799;28;20530;-91
2022/03/27 21:18:11;;;;;;;2.10;1.83;;;23.10;51.40;;;;;;5009957;28;20492;-92
2022/03/27 21:20:39;;;;;;;2.30;2.07;;;23.10;51.40;;;;;;5011250;28;20469;-91
2022/03/27 21:23:05;;;;;;;2.10;1.90;;;23.10;51.40;;;;;;5010242;28;20412;-91
2022/03/27 21:25:31;;;;;;;2.80;2.30;;;23.10;51.40;;;;;;5010055;28;20479;-91
2022/03/27 21:27:57;;;;;;;2.40;1.73;;;23.10;51.40;;;;;;5009729;28;20477;-91
2022/03/27 21:30:23;;;;;;;2.27;1.93;;;23.10;51.40;;;;;;5009682;28;20204;-92
2022/03/27 21:32:49;;;;;;;2.10;1.90;;;23.10;51.40;;;;;;5009660;28;20499;-91
2022/03/27 21:35:18;;;;;;;2.27;2.07;;;23.10;51.40;;;;;;5010119;28;20505;-92
2022/03/27 21:37:44;;;;;;;2.17;1.80;;;23.10;52.00;;;;;;5009249;28;20393;-91
2022/03/27 21:40:13;;;;;;;2.07;1.87;;;23.10;51.40;;;;;;4993770;28;20427;-92
2022/03/27 21:42:38;;;;;;;2.00;1.80;;;23.10;51.40;;;;;;5010595;28;20408;-92
2022/03/27 21:52:34;;;;;;;2.20;2.00;;;23.10;51.40;;;;;;5011356;28;20449;-91
2022/03/27 21:55:01;;;;;;;3.00;2.07;;;23.10;51.40;;;;;;5011674;28;20968;-91
2022/03/27 21:57:26;;;;;;;3.40;2.10;;;23.10;51.50;;;;;;5012211;28;20411;-91
2022/03/27 21:59:52;;;;;;;2.37;1.97;;;23.00;51.40;;;;;;5009447;28;20409;-92
2022/03/27 22:02:18;;;;;;;2.00;1.60;;;23.10;51.50;;;;;;4991861;28;20177;-91
2022/03/27 22:08:07;;;;;;;1.90;1.80;;;23.10;51.40;;;;;;4991122;28;20404;-91
2022/03/27 22:10:33;;;;;;;2.03;1.83;;;23.10;51.50;;;;;;5007343;28;20431;-92
2022/03/27 22:13:00;;;;;;;1.93;1.77;;;23.10;51.50;;;;;;5018857;28;20419;-91
2022/03/27 22:15:27;;;;;;;2.47;2.27;;;23.10;51.50;;;;;;5022770;28;20454;-91
2022/03/27 22:17:52;;;;;;;2.30;2.10;;;23.10;51.50;;;;;;5018394;28;20819;-91
2022/03/27 22:20:18;;;;;;;2.50;2.00;;;23.10;51.50;;;;;;5022169;28;20503;-91
2022/03/27 22:22:44;;;;;;;2.40;2.00;;;23.10;51.40;;;;;;5024549;28;20501;-91
2022/03/27 22:28:32;;;;;;;2.73;2.10;;;23.10;51.40;;;;;;5019807;28;20184;-91
2022/03/27 22:31:06;;;;;;;2.13;1.93;;;23.10;51.50;;;;;;5007833;28;20440;-92
2022/03/27 22:33:38;;;;;;;2.53;1.60;;;23.10;51.50;;;;;;5010925;28;20796;-91
2022/03/27 22:36:10;;;;;;;2.40;2.20;;;23.10;51.50;;;;;;5005248;28;20983;-91
2022/03/27 22:38:38;;;;;;;2.03;1.73;;;23.10;51.50;;;;;;5012215;28;20428;-91
2022/03/27 22:41:04;;;;;;;3.00;2.33;;;23.10;51.50;;;;;;5025386;28;21001;-91
2022/03/27 22:43:31;;;;;;;2.63;2.30;;;23.10;51.50;;;;;;5004224;28;20424;-91
2022/03/27 22:45:57;;;;;;;2.17;1.97;;;23.00;51.40;;;;;;5020155;28;20411;-91
2022/03/27 22:48:23;;;;;;;2.80;2.30;;;23.10;51.40;;;;;;5022799;28;20448;-90
2022/03/27 22:50:50;;;;;;;2.40;2.20;;;23.10;51.40;;;;;;5026637;28;20431;-90
2022/03/27 22:53:16;;;;;;;2.80;2.10;;;23.10;51.40;;;;;;5024742;28;20280;-90
2022/03/27 22:55:42;;;;;;;2.00;1.80;;;23.00;51.40;;;;;;5024861;28;20464;-90
2022/03/27 22:58:08;;;;;;;2.03;1.80;;;23.10;51.40;;;;;;5014238;28;20439;-90
2022/03/27 23:03:56;;;;;;;2.00;1.70;;;23.10;51.40;;;;;;5020650;28;20422;-90
2022/03/27 23:06:22;;;;;;;3.37;2.07;;;23.00;51.40;;;;;;5024113;28;20407;-90
2022/03/27 23:08:48;;;;;;;2.10;1.63;;;23.00;51.40;;;;;;5021140;28;20557;-89
2022/03/27 23:11:14;;;;;;;1.87;1.77;;;23.10;51.50;;;;;;5023446;28;20184;-89
2022/03/27 23:13:40;;;;;;;1.93;1.60;;;23.00;51.40;;;;;;5031429;28;20511;-89
2022/03/27 23:16:06;;;;;;;2.53;2.00;;;23.00;51.40;;;;;;5023726;28;20524;-89
2022/03/27 23:18:32;;;;;;;2.57;2.37;;;23.10;51.40;;;;;;5020030;28;20914;-89
2022/03/27 23:20:58;;;;;;;2.17;1.97;;;23.00;51.40;;;;;;5010134;28;20181;-89
2022/03/27 23:23:23;;;;;;;2.23;2.00;;;23.00;51.40;;;;;;5015049;28;20424;-89
2022/03/27 23:25:49;;;;;;;2.30;2.10;;;23.00;51.40;;;;;;5009458;28;20232;-89
2022/03/27 23:28:15;;;;;;;1.93;1.73;;;23.00;51.40;;;;;;5011385;28;20627;-88
2022/03/27 23:30:41;;;;;;;2.10;1.90;;;23.00;51.40;;;;;;5011532;28;20439;-88
2022/03/27 23:33:07;;;;;;;2.37;1.80;;;23.00;51.40;;;;;;5014034;28;20181;-89
2022/03/27 23:35:33;;;;;;;2.00;1.80;;;23.00;51.40;;;;;;5018831;28;20471;-88
2022/03/27 23:37:58;;;;;;;2.50;1.80;;;23.00;51.40;;;;;;5008998;28;20173;-89
2022/03/27 23:40:24;;;;;;;2.13;1.73;;;23.00;51.40;;;;;;5009556;28;20229;-89
2022/03/27 23:42:50;;;;;;;1.90;1.70;;;23.00;51.40;;;;;;5009306;28;20193;-89
2022/03/27 23:45:17;;;;;;;1.70;1.60;;;23.00;51.40;;;;;;5003688;28;20181;-89
2022/03/27 23:47:43;;;;;;;1.87;1.60;;;23.00;51.40;;;;;;5009431;28;20184;-90
2022/03/27 23:50:09;;;;;;;2.10;1.90;;;23.00;51.40;;;;;;5010037;28;20427;-90
2022/03/27 23:52:38;;;;;;;2.10;1.90;;;23.00;51.40;;;;;;5023623;28;20486;-90
2022/03/27 23:55:04;;;;;;;1.70;1.60;;;23.00;51.40;;;;;;5008826;28;20464;-90